Aviation Digital Data Service (ADDS)

Output produced by METARs form (0208 UTC 05 June 2020)
found at http://www.aviationweather.gov/metar/data/
 
Forecast for: RKSO (OSAN (US/KOR-AFB, KR)
Text: TAF RKSO 050100Z 0501/0607 VRB06KT 6000 BR BKN010 QNH2975INS
Forecast period: 0100 to 0200 UTC 05 June 2020
Forecast type: FROM: standard forecast or significant change
Winds: variable direction winds at 7 MPH (6 knots; 3.1 m/s)
Visibility: 4 miles (6 km)
Ceiling: 1000 feet AGL
Clouds: broken clouds at 1000 feet AGL
Weather: BR  (mist)
Text: BECMG 0502/0503 VRB06KT 8000 BR FEW016 QNH2971INS TX26/0507Z TN14/0520Z
Forecast period: 0200 UTC 05 June 2020 to 0700 UTC 06 June 2020
Forecast type: BECOMING: Conditions expected to become as follows by 0300 UTC 05 June 2020
Winds: variable direction winds at 7 MPH (6 knots; 3.1 m/s)
Visibility: 5 miles (8 km)
Ceiling: at least 12,000 feet AGL
Clouds: few clouds at 1600 feet AGL
Weather: BR  (mist)